createdAt,value
2019-04-30T00:01:55.766Z,10.70
2019-04-30T00:04:37.237Z,10.59
2019-04-30T00:07:10.197Z,10.55
2019-04-30T00:09:49.133Z,10.50
2019-04-30T00:12:20.013Z,10.41
2019-04-30T00:14:55.039Z,10.26
2019-04-30T00:17:31.086Z,10.17
2019-04-30T00:20:05.528Z,10.04
2019-04-30T00:22:47.166Z,10.04
2019-04-30T00:25:19.626Z,9.96
2019-04-30T00:27:52.071Z,9.91
2019-04-30T00:30:26.537Z,9.77
2019-04-30T00:33:00.900Z,9.77
2019-04-30T00:35:35.645Z,9.67
2019-04-30T00:38:09.921Z,9.60
2019-04-30T00:40:45.009Z,9.51
2019-04-30T00:43:19.374Z,9.30
2019-04-30T00:45:55.146Z,9.30
2019-04-30T00:48:31.282Z,9.27
2019-04-30T00:51:08.933Z,9.10
2019-04-30T00:53:43.780Z,9.10
2019-04-30T00:56:19.968Z,9.09
2019-04-30T00:58:57.417Z,8.98
2019-04-30T01:01:48.315Z,8.95
2019-04-30T01:04:28.868Z,8.91
2019-04-30T01:07:05.321Z,8.91
2019-04-30T01:09:39.739Z,8.81
2019-04-30T01:12:17.463Z,8.80
2019-04-30T01:14:49.940Z,8.78
2019-04-30T01:17:23.935Z,8.75
2019-04-30T01:19:59.230Z,8.72
2019-04-30T01:22:33.684Z,8.69
2019-04-30T01:25:13.302Z,8.62
2019-04-30T01:27:45.774Z,8.56
2019-04-30T01:30:22.867Z,8.56
2019-04-30T01:32:58.823Z,8.49
2019-04-30T01:35:33.281Z,8.45
2019-04-30T01:38:11.065Z,8.45
2019-04-30T01:40:47.557Z,8.43
2019-04-30T01:43:30.474Z,8.37
2019-04-30T01:46:01.786Z,8.40
2019-04-30T01:48:34.952Z,8.36
2019-04-30T01:51:13.363Z,8.37
2019-04-30T01:53:44.802Z,8.37
2019-04-30T01:56:35.509Z,8.32
2019-04-30T01:59:19.691Z,8.24
2019-04-30T02:01:54.281Z,8.16
2019-04-30T02:04:28.996Z,8.15
2019-04-30T02:07:04.728Z,8.08
2019-04-30T02:09:39.112Z,8.04
2019-04-30T02:12:13.604Z,8.01
2019-04-30T02:14:49.759Z,7.96
2019-04-30T02:17:23.918Z,7.95
2019-04-30T02:19:57.378Z,7.89
2019-04-30T02:22:32.612Z,7.90
2019-04-30T02:25:07.301Z,7.86
2019-04-30T02:27:41.768Z,7.85
2019-04-30T02:30:20.521Z,7.86
2019-04-30T02:32:53.279Z,7.86
2019-04-30T02:35:50.108Z,7.74
2019-04-30T02:38:31.278Z,7.58
2019-04-30T02:41:06.320Z,7.58
2019-04-30T02:43:42.937Z,7.64
2019-04-30T02:46:19.284Z,7.60
2019-04-30T02:48:56.105Z,7.60
2019-04-30T02:51:33.651Z,7.59
2019-04-30T02:54:24.021Z,7.59
2019-04-30T02:57:11.286Z,7.59
2019-04-30T03:00:02.654Z,7.56
2019-04-30T03:02:39.160Z,7.51
2019-04-30T03:05:14.316Z,7.42
2019-04-30T03:07:50.358Z,7.39
2019-04-30T03:10:24.696Z,7.35
2019-04-30T03:13:00.010Z,7.34
2019-04-30T03:15:34.647Z,7.32
2019-04-30T03:18:23.155Z,7.26
2019-04-30T03:21:21.717Z,7.25
2019-04-30T03:23:55.940Z,7.19
2019-04-30T03:26:29.714Z,7.21
2019-04-30T03:29:03.932Z,7.15
2019-04-30T03:31:44.401Z,7.13
2019-04-30T03:34:24.154Z,7.09
2019-04-30T03:36:50.546Z,7.08
2019-04-30T03:39:24.938Z,7.06
2019-04-30T03:41:59.730Z,7.05
2019-04-30T03:44:34.106Z,7.01
2019-04-30T03:47:10.918Z,6.97
2019-04-30T03:49:44.300Z,6.93
2019-04-30T03:52:19.762Z,6.93
2019-04-30T03:54:53.894Z,6.88
2019-04-30T03:57:30.203Z,6.87
2019-04-30T04:00:04.274Z,6.87
2019-04-30T04:02:50.170Z,6.90
2019-04-30T04:05:46.305Z,6.90
2019-04-30T04:08:31.941Z,6.89
2019-04-30T04:11:24.526Z,6.96
2019-04-30T04:13:59.726Z,6.85
2019-04-30T04:16:32.680Z,6.81
2019-04-30T04:20:30.589Z,6.99
2019-04-30T04:23:05.112Z,6.99
2019-04-30T04:25:40.317Z,6.90
2019-04-30T04:28:14.726Z,6.90
2019-04-30T04:30:50.580Z,6.89
2019-04-30T04:33:24.944Z,6.96
2019-04-30T04:35:59.812Z,6.96
2019-04-30T04:38:33.942Z,6.96
2019-04-30T04:41:10.349Z,7.08
2019-04-30T04:43:43.943Z,7.07
2019-04-30T04:46:20.320Z,7.13
2019-04-30T04:48:53.928Z,7.18
2019-04-30T04:51:34.499Z,7.27
2019-04-30T04:54:03.419Z,7.16
2019-04-30T04:56:39.866Z,7.13
2019-04-30T05:01:01.335Z,7.28
2019-04-30T05:03:39.925Z,7.31
2019-04-30T05:06:14.371Z,7.26
2019-04-30T05:08:49.351Z,7.26
2019-04-30T05:11:23.737Z,7.30
2019-04-30T05:13:58.934Z,7.31
2019-04-30T05:16:33.330Z,7.28
2019-04-30T05:19:08.895Z,7.28
2019-04-30T05:21:44.759Z,7.27
2019-04-30T05:24:19.010Z,7.31
2019-04-30T05:26:53.328Z,7.20
2019-04-30T05:29:28.937Z,7.20
2019-04-30T05:32:03.274Z,7.26
2019-04-30T05:34:38.571Z,7.26
2019-04-30T05:37:13.265Z,7.36
2019-04-30T05:39:48.945Z,7.36
2019-04-30T05:42:23.306Z,7.24
2019-04-30T05:44:59.341Z,7.24
2019-04-30T05:47:33.727Z,7.32
2019-04-30T05:50:10.266Z,7.35
2019-04-30T05:52:44.922Z,7.45
2019-04-30T05:55:21.262Z,7.49
2019-04-30T05:57:56.558Z,7.85
2019-04-30T06:00:32.278Z,7.92
2019-04-30T06:03:06.766Z,7.90
2019-04-30T06:05:41.271Z,8.14
2019-04-30T06:08:19.199Z,8.14
2019-04-30T06:11:04.703Z,8.37
2019-04-30T06:13:52.358Z,8.61
2019-04-30T06:16:29.822Z,8.74
2019-04-30T06:19:04.252Z,8.81
2019-04-30T06:24:21.264Z,9.24
2019-04-30T06:26:55.656Z,9.24
2019-04-30T06:29:30.118Z,9.33
2019-04-30T06:32:05.300Z,9.52
2019-04-30T06:34:42.062Z,9.52
2019-04-30T06:37:19.260Z,9.52
2019-04-30T06:39:53.313Z,9.63
2019-04-30T06:42:29.342Z,9.82
2019-04-30T06:45:04.342Z,9.81
2019-04-30T06:47:39.301Z,9.90
2019-04-30T06:50:13.851Z,9.97
2019-04-30T06:52:56.688Z,10.11
2019-04-30T06:55:24.572Z,10.26
2019-04-30T06:58:11.176Z,10.52
2019-04-30T07:00:40.023Z,10.65
2019-04-30T07:03:14.924Z,10.89
2019-04-30T07:05:48.821Z,11.20
2019-04-30T07:08:46.767Z,11.20
2019-04-30T07:11:24.303Z,11.39
2019-04-30T07:13:59.960Z,11.61
2019-04-30T07:16:34.730Z,11.92
2019-04-30T07:19:09.399Z,11.92
2019-04-30T07:21:45.321Z,11.89
2019-04-30T07:24:21.080Z,11.83
2019-04-30T07:26:59.711Z,11.88
2019-04-30T07:29:31.719Z,12.08
2019-04-30T07:32:09.217Z,12.32
2019-04-30T07:34:43.253Z,12.44
2019-04-30T07:37:24.078Z,12.65
2019-04-30T07:39:53.666Z,12.83
2019-04-30T07:42:29.386Z,12.85
2019-04-30T07:45:04.283Z,13.08
2019-04-30T07:47:39.618Z,13.28
2019-04-30T07:50:16.371Z,13.30
2019-04-30T07:53:01.651Z,13.73
2019-04-30T07:55:29.363Z,13.66
2019-04-30T07:58:04.318Z,13.70
2019-04-30T08:00:40.274Z,14.34
2019-04-30T08:03:33.777Z,14.34
2019-04-30T08:06:10.098Z,14.02
2019-04-30T08:08:45.054Z,14.01
2019-04-30T08:11:25.810Z,14.45
2019-04-30T08:13:56.195Z,14.45
2019-04-30T08:16:32.418Z,15.39
2019-04-30T08:19:09.030Z,15.39
2019-04-30T08:21:43.708Z,15.99
2019-04-30T08:24:19.345Z,15.88
2019-04-30T08:26:53.784Z,16.19
2019-04-30T08:29:26.618Z,16.48
2019-04-30T08:32:00.946Z,17.57
2019-04-30T08:34:35.267Z,18.33
2019-04-30T08:37:17.322Z,18.33
2019-04-30T08:39:45.937Z,18.86
2019-04-30T08:42:30.701Z,19.32
2019-04-30T08:44:58.076Z,19.78
2019-04-30T08:47:32.735Z,20.39
2019-04-30T08:50:06.658Z,20.39
2019-04-30T08:52:41.277Z,20.01
2019-04-30T08:55:22.045Z,20.97
2019-04-30T08:58:06.585Z,20.97
2019-04-30T09:00:30.286Z,21.02
2019-04-30T09:03:05.301Z,21.11
2019-04-30T09:05:59.021Z,21.27
2019-04-30T09:08:33.748Z,21.64
2019-04-30T09:11:21.768Z,21.59
2019-04-30T09:13:43.920Z,21.55
2019-04-30T09:16:19.415Z,21.75
2019-04-30T09:18:55.762Z,21.80
2019-04-30T09:21:30.049Z,21.80
2019-04-30T09:24:04.699Z,21.97
2019-04-30T09:26:39.330Z,21.97
2019-04-30T09:29:15.703Z,21.80
2019-04-30T09:31:50.252Z,21.76
2019-04-30T09:34:24.718Z,22.10
2019-04-30T09:36:59.137Z,22.28
2019-04-30T09:39:33.711Z,22.56
2019-04-30T09:42:09.273Z,22.56
2019-04-30T09:44:43.792Z,22.22
2019-04-30T09:47:16.997Z,22.22
2019-04-30T09:49:51.124Z,22.49
2019-04-30T09:52:25.734Z,22.84
2019-04-30T09:55:01.865Z,22.93
2019-04-30T09:57:38.887Z,22.93
2019-04-30T10:00:13.795Z,23.01
2019-04-30T10:02:48.883Z,23.22
2019-04-30T10:05:23.660Z,22.94
2019-04-30T10:07:56.691Z,22.94
2019-04-30T10:10:36.348Z,23.08
2019-04-30T10:13:11.422Z,23.26
2019-04-30T10:15:58.444Z,23.70
2019-04-30T10:18:32.946Z,23.97
2019-04-30T10:21:09.122Z,23.55
2019-04-30T10:23:43.714Z,23.30
2019-04-30T10:26:18.051Z,23.23
2019-04-30T10:28:54.320Z,22.89
2019-04-30T10:31:29.318Z,22.82
2019-04-30T10:34:03.950Z,22.70
2019-04-30T10:36:41.236Z,23.01
2019-04-30T10:39:14.552Z,23.31
2019-04-30T10:41:49.100Z,23.60
2019-04-30T10:44:23.646Z,23.81
2019-04-30T10:46:59.325Z,23.77
2019-04-30T10:49:34.273Z,22.45
2019-04-30T10:52:09.439Z,22.15
2019-04-30T10:54:44.265Z,23.02
2019-04-30T10:57:19.094Z,23.71
2019-04-30T10:59:53.648Z,24.80
2019-04-30T11:02:28.731Z,24.80
2019-04-30T11:05:04.293Z,24.09
2019-04-30T11:07:39.157Z,24.12
2019-04-30T11:10:14.134Z,25.30
2019-04-30T11:12:48.680Z,25.30
2019-04-30T11:15:22.460Z,25.86
2019-04-30T11:17:57.072Z,26.14
2019-04-30T11:20:32.150Z,26.58
2019-04-30T11:23:14.336Z,26.62
2019-04-30T11:25:46.008Z,27.36
2019-04-30T11:28:21.657Z,27.36
2019-04-30T11:33:54.647Z,28.00
2019-04-30T11:36:29.292Z,28.11
2019-04-30T11:39:04.239Z,28.46
2019-04-30T11:41:39.557Z,28.64
2019-04-30T11:44:13.948Z,28.56
2019-04-30T11:47:27.280Z,28.71
2019-04-30T11:50:01.676Z,28.74
2019-04-30T11:52:36.023Z,28.22
2019-04-30T11:55:12.558Z,27.60
2019-04-30T11:57:49.399Z,28.03
2019-04-30T12:00:29.709Z,26.63
2019-04-30T12:03:02.797Z,26.63
2019-04-30T12:05:38.888Z,26.98
2019-04-30T12:08:19.556Z,27.22
2019-04-30T12:11:07.272Z,29.11
2019-04-30T12:13:41.683Z,29.11
2019-04-30T12:16:15.012Z,27.53
2019-04-30T12:18:50.941Z,28.01
2019-04-30T12:21:25.293Z,29.13
2019-04-30T12:23:59.767Z,29.85
2019-04-30T12:26:32.642Z,30.91
2019-04-30T12:29:08.983Z,30.91
2019-04-30T12:31:43.037Z,30.60
2019-04-30T12:34:17.326Z,31.22
2019-04-30T12:36:51.876Z,29.92
2019-04-30T12:39:26.265Z,29.93
2019-04-30T12:42:02.346Z,30.71
2019-04-30T12:44:39.879Z,31.58
2019-04-30T12:47:13.642Z,29.90
2019-04-30T12:49:55.298Z,29.90
2019-04-30T12:52:35.107Z,30.21
2019-04-30T12:55:23.103Z,31.54
2019-04-30T12:58:00.437Z,31.54
2019-04-30T13:00:34.279Z,31.20
2019-04-30T13:03:08.686Z,31.58
2019-04-30T13:05:43.202Z,32.07
2019-04-30T13:08:20.757Z,32.26
2019-04-30T13:10:55.050Z,31.45
2019-04-30T13:13:32.223Z,31.45
2019-04-30T13:16:06.278Z,30.91
2019-04-30T13:18:40.648Z,31.02
2019-04-30T13:21:16.285Z,31.42
2019-04-30T13:23:50.945Z,31.44
2019-04-30T13:26:25.654Z,32.07
2019-04-30T13:29:04.774Z,32.21
2019-04-30T13:31:37.857Z,31.86
2019-04-30T13:34:29.963Z,31.46
2019-04-30T13:37:04.388Z,31.49
2019-04-30T13:39:52.263Z,31.05
2019-04-30T13:42:29.249Z,31.02
2019-04-30T13:45:03.940Z,30.56
2019-04-30T13:47:39.056Z,30.56
2019-04-30T13:50:13.686Z,31.16
2019-04-30T13:52:48.866Z,31.74
2019-04-30T13:55:23.313Z,31.74
2019-04-30T13:57:57.728Z,32.08
2019-04-30T14:00:31.096Z,32.08
2019-04-30T14:03:22.473Z,31.95
2019-04-30T14:05:59.330Z,31.56
2019-04-30T14:08:39.288Z,31.86
2019-04-30T14:11:13.891Z,32.64
2019-04-30T14:13:50.305Z,32.40
2019-04-30T14:16:25.271Z,32.40
2019-04-30T14:18:59.862Z,32.72
2019-04-30T14:21:35.383Z,32.88
2019-04-30T14:24:11.274Z,32.94
2019-04-30T14:26:45.859Z,32.58
2019-04-30T14:29:20.316Z,33.10
2019-04-30T14:31:54.869Z,32.94
2019-04-30T14:34:29.328Z,32.77
2019-04-30T14:37:03.922Z,32.59
2019-04-30T14:39:38.916Z,32.60
2019-04-30T14:42:14.599Z,32.02
2019-04-30T14:44:52.551Z,32.02
2019-04-30T14:47:41.005Z,32.01
2019-04-30T14:50:18.492Z,32.10
2019-04-30T14:53:03.096Z,31.98
2019-04-30T14:56:09.470Z,31.61
2019-04-30T14:59:07.277Z,31.54
2019-04-30T15:01:49.103Z,31.49
2019-04-30T15:04:25.304Z,31.44
2019-04-30T15:07:00.279Z,31.34
2019-04-30T15:09:34.734Z,30.86
2019-04-30T15:12:09.682Z,29.82
2019-04-30T15:14:44.248Z,30.09
2019-04-30T15:17:18.739Z,30.12
2019-04-30T15:19:54.529Z,29.26
2019-04-30T15:22:29.052Z,28.51
2019-04-30T15:25:03.656Z,26.99
2019-04-30T15:27:45.187Z,26.93
2019-04-30T15:30:21.626Z,26.93
2019-04-30T15:32:55.335Z,27.00
2019-04-30T15:35:29.779Z,26.90
2019-04-30T15:38:02.833Z,26.33
2019-04-30T15:40:38.729Z,25.70
2019-04-30T15:43:11.908Z,25.05
2019-04-30T15:45:44.727Z,24.55
2019-04-30T15:48:19.684Z,24.02
2019-04-30T15:50:54.091Z,23.49
2019-04-30T15:53:28.633Z,22.50
2019-04-30T15:56:03.103Z,22.50
2019-04-30T15:58:39.416Z,22.10
2019-04-30T16:01:14.369Z,21.76
2019-04-30T16:03:50.510Z,21.37
2019-04-30T16:06:24.945Z,21.06
2019-04-30T16:09:01.281Z,20.55
2019-04-30T16:11:49.229Z,20.30
2019-04-30T16:14:33.274Z,20.11
2019-04-30T16:17:14.936Z,19.88
2019-04-30T16:19:49.322Z,19.85
2019-04-30T16:22:23.864Z,19.85
2019-04-30T16:24:56.856Z,19.71
2019-04-30T16:27:30.938Z,19.61
2019-04-30T16:30:05.779Z,19.52
2019-04-30T16:32:40.285Z,19.36
2019-04-30T16:35:14.951Z,19.26
2019-04-30T16:37:49.707Z,18.99
2019-04-30T16:40:24.285Z,18.79
2019-04-30T16:42:58.696Z,18.72
2019-04-30T16:45:31.641Z,18.70
2019-04-30T16:48:05.927Z,18.66
2019-04-30T16:50:40.273Z,18.53
2019-04-30T16:53:14.645Z,18.53
2019-04-30T16:55:50.611Z,18.43
2019-04-30T16:58:23.660Z,18.44
2019-04-30T17:00:59.343Z,18.35
2019-04-30T17:03:39.611Z,18.28
2019-04-30T17:06:17.510Z,18.26
2019-04-30T17:09:13.547Z,18.17
2019-04-30T17:12:05.342Z,17.95
2019-04-30T17:14:40.943Z,17.78
2019-04-30T17:17:24.756Z,17.68
2019-04-30T17:19:57.657Z,17.63
2019-04-30T17:22:31.915Z,17.48
2019-04-30T17:25:06.343Z,17.44
2019-04-30T17:27:40.767Z,17.42
2019-04-30T17:30:15.360Z,17.36
2019-04-30T17:32:50.099Z,17.28
2019-04-30T17:35:24.673Z,17.22
2019-04-30T17:37:58.951Z,17.16
2019-04-30T17:40:33.347Z,17.05
2019-04-30T17:43:07.746Z,16.99
2019-04-30T17:45:40.867Z,16.87
2019-04-30T17:48:13.639Z,16.77
2019-04-30T17:50:49.639Z,16.72
2019-04-30T17:53:24.291Z,16.66
2019-04-30T17:55:58.721Z,16.62
2019-04-30T17:58:33.268Z,16.55
2019-04-30T18:01:09.510Z,16.48
2019-04-30T18:03:43.949Z,16.42
2019-04-30T18:06:18.983Z,16.35
2019-04-30T18:08:53.672Z,16.12
2019-04-30T18:11:29.567Z,16.12
2019-04-30T18:14:02.669Z,16.07
2019-04-30T18:16:38.676Z,15.97
2019-04-30T18:19:30.597Z,15.86
2019-04-30T18:22:29.558Z,15.76
2019-04-30T18:25:22.548Z,15.67
2019-04-30T18:27:59.748Z,15.54
2019-04-30T18:30:36.756Z,15.44
2019-04-30T18:33:10.975Z,15.39
2019-04-30T18:35:45.340Z,15.31
2019-04-30T18:38:20.285Z,15.23
2019-04-30T18:40:54.719Z,15.12
2019-04-30T18:43:28.954Z,14.99
2019-04-30T18:46:03.287Z,14.90
2019-04-30T18:48:39.355Z,14.80
2019-04-30T18:51:30.053Z,14.75
2019-04-30T18:53:50.279Z,14.67
2019-04-30T18:56:24.879Z,14.59
2019-04-30T18:58:58.638Z,14.54
2019-04-30T19:01:33.024Z,14.45
2019-04-30T19:04:09.231Z,14.37
2019-04-30T19:07:55.134Z,14.37
2019-04-30T19:10:38.847Z,14.26
2019-04-30T19:13:34.451Z,14.16
2019-04-30T19:16:41.873Z,14.05
2019-04-30T19:19:25.289Z,14.05
2019-04-30T19:21:59.693Z,13.92
2019-04-30T19:24:34.310Z,13.81
2019-04-30T19:27:08.788Z,13.73
2019-04-30T19:29:41.667Z,13.67
2019-04-30T19:32:17.280Z,13.62
2019-04-30T19:34:51.748Z,13.55
2019-04-30T19:37:26.258Z,13.40
2019-04-30T19:40:00.726Z,13.40
2019-04-30T19:42:33.866Z,13.30
2019-04-30T19:45:10.181Z,13.25
2019-04-30T19:47:43.660Z,13.20
2019-04-30T19:50:19.279Z,13.21
2019-04-30T19:52:53.877Z,13.11
2019-04-30T19:55:28.641Z,13.02
2019-04-30T19:58:03.139Z,12.92
2019-04-30T20:00:38.985Z,12.80
2019-04-30T20:03:13.335Z,12.80
2019-04-30T20:05:48.539Z,12.73
2019-04-30T20:08:23.088Z,12.59
2019-04-30T20:10:59.363Z,12.57
2019-04-30T20:13:37.018Z,12.57
2019-04-30T20:16:09.873Z,12.57
2019-04-30T20:18:42.869Z,12.49
2019-04-30T20:21:28.383Z,12.38
2019-04-30T20:23:55.318Z,12.26
2019-04-30T20:29:12.276Z,12.25
2019-04-30T20:31:48.605Z,12.19
2019-04-30T20:34:22.880Z,12.17
2019-04-30T20:36:55.692Z,12.08
2019-04-30T20:39:51.539Z,11.99
2019-04-30T20:42:26.930Z,11.95
2019-04-30T20:44:59.870Z,11.98
2019-04-30T20:47:33.904Z,11.95
2019-04-30T20:50:07.078Z,11.87
2019-04-30T20:52:41.285Z,11.81
2019-04-30T20:55:15.718Z,11.75
2019-04-30T20:57:49.852Z,11.71
2019-04-30T21:00:25.398Z,11.67
2019-04-30T21:02:59.952Z,11.59
2019-04-30T21:05:32.933Z,11.53
2019-04-30T21:08:07.134Z,11.51
2019-04-30T21:10:41.678Z,11.43
2019-04-30T21:13:16.123Z,11.40
2019-04-30T21:15:50.693Z,11.42
2019-04-30T21:18:26.241Z,11.43
2019-04-30T21:21:00.659Z,11.34
2019-04-30T21:23:35.102Z,11.26
2019-04-30T21:26:09.671Z,11.14
2019-04-30T21:28:44.138Z,11.14
2019-04-30T21:31:36.291Z,11.06
2019-04-30T21:34:30.750Z,11.02
2019-04-30T21:37:04.013Z,10.99
2019-04-30T21:39:36.682Z,10.91
2019-04-30T21:42:11.553Z,10.83
2019-04-30T21:44:45.941Z,10.78
2019-04-30T21:47:20.995Z,10.74
2019-04-30T21:49:55.657Z,10.67
2019-04-30T21:52:30.119Z,10.67
2019-04-30T21:56:37.342Z,10.64
2019-04-30T21:59:23.798Z,10.59
2019-04-30T22:01:48.289Z,10.55
2019-04-30T22:04:22.938Z,10.55
2019-04-30T22:06:56.062Z,10.53
2019-04-30T22:09:29.290Z,10.49
2019-04-30T22:12:03.333Z,10.48
2019-04-30T22:14:38.090Z,10.41
2019-04-30T22:17:12.399Z,10.38
2019-04-30T22:19:46.776Z,10.36
2019-04-30T22:22:20.945Z,10.36
2019-04-30T22:24:53.986Z,10.30
2019-04-30T22:27:26.694Z,10.28
2019-04-30T22:30:00.901Z,10.34
2019-04-30T22:32:36.957Z,10.29
2019-04-30T22:35:27.866Z,10.23
2019-04-30T22:38:04.123Z,10.21
2019-04-30T22:40:39.236Z,10.12
2019-04-30T22:43:13.882Z,10.12
2019-04-30T22:45:52.306Z,10.10
2019-04-30T22:48:28.666Z,10.01
2019-04-30T22:51:07.844Z,10.01
2019-04-30T22:53:40.823Z,10.00
2019-04-30T22:56:15.055Z,9.99
2019-04-30T22:58:49.325Z,9.86
2019-04-30T23:01:49.892Z,9.86
2019-04-30T23:04:37.289Z,9.91
2019-04-30T23:07:11.703Z,9.90
2019-04-30T23:09:46.251Z,9.81
2019-04-30T23:12:20.786Z,9.78
2019-04-30T23:14:55.303Z,9.75
2019-04-30T23:17:29.763Z,9.75
2019-04-30T23:20:04.315Z,9.72
2019-04-30T23:22:38.888Z,9.72
2019-04-30T23:25:12.002Z,9.72
2019-04-30T23:27:44.678Z,9.69
2019-04-30T23:30:18.965Z,9.76
2019-04-30T23:32:51.708Z,9.73
2019-04-30T23:35:25.967Z,9.70
2019-04-30T23:38:00.572Z,9.69
2019-04-30T23:40:51.776Z,9.70
2019-04-30T23:43:26.285Z,9.66
2019-04-30T23:46:00.686Z,9.63
2019-04-30T23:48:34.957Z,9.60
2019-04-30T23:51:09.121Z,9.61
2019-04-30T23:53:43.700Z,9.59
2019-04-30T23:56:18.119Z,9.59
2019-04-30T23:58:52.348Z,9.57
